Time;durP1;ratioP1;P1;durP2;ratioP2;P2;SDS_P1;SDS_P2;PMS_P1;PMS_P2;Temp;Humidity;BMP_temperature;BMP_pressure;BME280_temperature;BME280_humidity;BME280_pressure;Samples;Min_cycle;Max_cycle;Signal;HPM_P1;HPM_P2
2023/01/24 00:00:11;;;;;;;;;;;;;;;-10.10;52.25;98646.06;6223433;28;19926;-69
2023/01/24 00:03:13;;;;;;;;;;;;;;;-10.18;52.61;98647.41;6223601;28;19925;-69
2023/01/24 00:06:15;;;;;;;;;;;;;;;-10.24;52.40;98648.00;6223489;28;19975;-70
2023/01/24 00:09:16;;;;;;;;;;;;;;;-10.30;52.34;98636.69;6223639;28;20389;-70
2023/01/24 00:12:19;;;;;;;;;;;;;;;-10.36;52.43;98631.31;6223859;28;19925;-69
2023/01/24 00:15:23;;;;;;;;;;;;;;;-10.41;52.41;98639.63;6223376;28;20035;-69
2023/01/24 00:18:27;;;;;;;;;;;;;;;-10.42;52.61;98632.78;6223661;28;19929;-69
2023/01/24 00:21:28;;;;;;;;;;;;;;;-10.44;52.55;98634.41;6223075;28;20019;-69
2023/01/24 00:24:32;;;;;;;;;;;;;;;-10.45;52.46;98619.03;6222919;28;19929;-69
2023/01/24 00:27:36;;;;;;;;;;;;;;;-10.48;52.23;98617.22;6222956;28;19925;-69
2023/01/24 00:30:39;;;;;;;;;;;;;;;-10.53;52.14;98605.09;6222150;28;20350;-69
2023/01/24 00:33:40;;;;;;;;;;;;;;;-10.57;52.22;98601.56;6222840;28;20407;-70
2023/01/24 00:36:45;;;;;;;;;;;;;;;-10.48;51.68;98611.28;6222905;28;19925;-68
2023/01/24 00:39:46;;;;;;;;;;;;;;;-10.30;52.24;98606.13;6222467;28;19925;-69
2023/01/24 00:42:47;;;;;;;;;;;;;;;-10.20;52.00;98593.84;6222610;28;19948;-70
2023/01/24 00:45:48;;;;;;;;;;;;;;;-10.19;52.03;98594.72;6222606;28;20422;-69
2023/01/24 00:48:49;;;;;;;;;;;;;;;-10.26;52.10;98587.63;6223042;28;20059;-68
2023/01/24 00:51:52;;;;;;;;;;;;;;;-10.37;52.37;98593.97;6222346;28;19933;-69
2023/01/24 00:54:58;;;;;;;;;;;;;;;-10.51;52.52;98586.56;6222500;28;20383;-69
2023/01/24 00:58:02;;;;;;;;;;;;;;;-10.62;52.43;98592.84;6222368;28;19925;-69
2023/01/24 01:01:05;;;;;;;;;;;;;;;-10.70;52.68;98578.91;6222459;28;20461;-69
2023/01/24 01:04:07;;;;;;;;;;;;;;;-10.74;52.71;98582.13;6221734;28;19926;-69
2023/01/24 01:07:10;;;;;;;;;;;;;;;-10.78;52.90;98580.22;6222238;28;19925;-69
2023/01/24 01:10:11;;;;;;;;;;;;;;;-10.77;53.05;98571.81;6222111;28;19932;-69
2023/01/24 01:13:16;;;;;;;;;;;;;;;-10.75;53.10;98570.22;6222092;28;19933;-69
2023/01/24 01:16:20;;;;;;;;;;;;;;;-10.77;52.50;98571.81;6222261;28;19929;-70
2023/01/24 01:19:21;;;;;;;;;;;;;;;-10.82;52.32;98578.34;6221436;28;19926;-69
2023/01/24 01:22:25;;;;;;;;;;;;;;;-10.82;52.56;98583.44;6221944;28;19925;-69
2023/01/24 01:25:28;;;;;;;;;;;;;;;-10.83;52.66;98581.69;6221210;28;19925;-68
2023/01/24 01:28:29;;;;;;;;;;;;;;;-10.88;52.69;98559.47;6221749;28;19922;-69
2023/01/24 01:31:33;;;;;;;;;;;;;;;-10.93;52.81;98550.75;6204513;28;19925;-69
2023/01/24 01:34:36;;;;;;;;;;;;;;;-10.92;52.44;98552.50;6204009;28;19925;-68
2023/01/24 01:37:37;;;;;;;;;;;;;;;-10.96;52.64;98529.41;6221790;28;19929;-68
2023/01/24 01:40:41;;;;;;;;;;;;;;;-11.03;52.53;98527.41;6221142;28;19948;-69
2023/01/24 01:44:37;;;;;;;;;;;;;;;-11.03;52.72;98518.09;6203984;28;19936;-69
2023/01/24 01:47:16;;;;;;;;;;;;;;;-10.66;53.12;98535.00;6221392;28;20391;-69
2023/01/24 01:50:29;;;;;;;;;;;;;;;-10.61;53.46;98536.09;6221551;28;19932;-69
2023/01/24 01:53:37;;;;;;;;;;;;;;;-10.69;54.05;98539.97;6220970;28;19948;-69
2023/01/24 01:56:40;;;;;;;;;;;;;;;-10.77;54.48;98538.75;6221176;28;19979;-68
2023/01/24 02:00:19;;;;;;;;;;;;;;;-10.83;54.86;98536.78;6221214;28;19925;-70
2023/01/24 02:03:40;;;;;;;;;;;;;;;-10.90;54.34;98532.22;6193703;28;19926;-70
2023/01/24 02:06:50;;;;;;;;;;;;;;;-11.03;54.08;98535.88;6220625;28;19934;-69
2023/01/24 02:09:54;;;;;;;;;;;;;;;-11.15;54.31;98532.75;6220645;28;19928;-69
2023/01/24 02:12:55;;;;;;;;;;;;;;;-11.26;54.22;98527.19;6220774;28;19925;-69
2023/01/24 02:16:05;;;;;;;;;;;;;;;-11.35;54.09;98520.00;6220877;28;19956;-69
2023/01/24 02:19:11;;;;;;;;;;;;;;;-11.40;54.04;98538.38;6220557;28;19927;-69
2023/01/24 02:22:15;;;;;;;;;;;;;;;-11.45;53.87;98533.06;6220603;28;19926;-68
2023/01/24 02:25:22;;;;;;;;;;;;;;;-11.46;54.01;98530.44;6220496;28;20016;-70
2023/01/24 02:28:23;;;;;;;;;;;;;;;-11.45;54.08;98537.28;6220342;28;19925;-70
2023/01/24 02:31:29;;;;;;;;;;;;;;;-11.40;54.21;98536.69;6220640;28;20016;-70
2023/01/24 02:34:32;;;;;;;;;;;;;;;-11.35;54.21;98550.50;6219848;28;19926;-69
2023/01/24 02:37:37;;;;;;;;;;;;;;;-11.33;54.38;98545.47;6220511;28;20474;-68
2023/01/24 02:40:41;;;;;;;;;;;;;;;-11.32;54.46;98555.72;6219978;28;19925;-69
2023/01/24 02:43:44;;;;;;;;;;;;;;;-11.32;54.08;98554.84;6219965;28;19926;-68
2023/01/24 02:46:48;;;;;;;;;;;;;;;-11.39;53.89;98551.13;6220483;28;20420;-69
2023/01/24 02:49:49;;;;;;;;;;;;;;;-11.46;53.82;98555.84;6219884;28;20011;-70
2023/01/24 02:59:36;;;;;;;;;;;;;;;-11.53;54.00;98554.69;6225385;28;19925;-69
2023/01/24 03:02:37;;;;;;;;;;;;;;;-11.55;54.06;98572.41;6224427;28;19932;-69
2023/01/24 03:06:02;;;;;;;;;;;;;;;-11.64;53.49;98566.84;6224886;28;19929;-69
2023/01/24 03:09:18;;;;;;;;;;;;;;;-11.76;53.97;98566.25;6224000;28;20024;-69
2023/01/24 03:35:45;;;;;;;;;;;;;;;-12.24;53.24;98571.50;6223662;28;19938;-68
2023/01/24 03:42:06;;;;;;;;;;;;;;;-12.38;53.41;98567.38;6224052;28;19926;-68
2023/01/24 03:45:16;;;;;;;;;;;;;;;-12.43;53.30;98569.66;6223838;28;19932;-69
2023/01/24 03:48:26;;;;;;;;;;;;;;;-12.42;53.62;98575.66;6223983;28;20012;-68
2023/01/24 03:54:52;;;;;;;;;;;;;;;-12.40;53.68;98571.50;6224172;28;19925;-70
2023/01/24 03:57:53;;;;;;;;;;;;;;;-12.38;53.20;98572.47;6223811;28;19972;-69
2023/01/24 04:00:54;;;;;;;;;;;;;;;-12.38;53.29;98576.66;6223588;28;19932;-70
2023/01/24 04:04:00;;;;;;;;;;;;;;;-12.36;53.70;98575.09;6222860;28;19926;-70
2023/01/24 04:07:05;;;;;;;;;;;;;;;-12.31;53.33;98584.69;6223189;28;19944;-69
2023/01/24 04:10:07;;;;;;;;;;;;;;;-12.29;53.61;98578.00;6223467;28;19921;-69
2023/01/24 04:13:09;;;;;;;;;;;;;;;-12.25;53.35;98566.38;6189854;28;20319;-69
2023/01/24 04:16:14;;;;;;;;;;;;;;;-12.21;53.33;98565.72;6223281;28;20453;-70
2023/01/24 04:19:18;;;;;;;;;;;;;;;-12.15;53.51;98560.09;6223483;28;20428;-69
2023/01/24 04:22:19;;;;;;;;;;;;;;;-12.12;53.40;98562.78;6222809;28;19948;-70
2023/01/24 04:25:20;;;;;;;;;;;;;;;-12.05;53.52;98567.38;6223079;28;20318;-70
2023/01/24 04:28:24;;;;;;;;;;;;;;;-12.00;53.52;98568.47;6223109;28;19922;-70
2023/01/24 04:31:27;;;;;;;;;;;;;;;-11.93;53.41;98564.59;6223064;28;20438;-69
2023/01/24 04:34:29;;;;;;;;;;;;;;;-11.84;53.15;98568.41;6205481;28;19927;-69
2023/01/24 04:37:33;;;;;;;;;;;;;;;-11.76;53.05;98572.19;6222928;28;19931;-69
2023/01/24 04:40:36;;;;;;;;;;;;;;;-11.71;52.60;98569.03;6222718;28;19925;-69
2023/01/24 04:43:37;;;;;;;;;;;;;;;-11.69;52.35;98572.50;6222041;28;19926;-69
2023/01/24 04:46:40;;;;;;;;;;;;;;;-11.68;52.69;98579.34;6222748;28;19929;-69
2023/01/24 04:49:43;;;;;;;;;;;;;;;-11.64;52.58;98576.16;6222913;28;20367;-69
2023/01/24 04:52:48;;;;;;;;;;;;;;;-11.58;52.62;98573.91;6222685;28;19932;-70
2023/01/24 04:55:49;;;;;;;;;;;;;;;-11.48;53.00;98583.72;6221915;28;20490;-69
2023/01/24 04:58:52;;;;;;;;;;;;;;;-11.37;52.81;98566.47;6222514;28;19933;-69
2023/01/24 05:01:55;;;;;;;;;;;;;;;-11.31;52.45;98572.69;6222244;28;19925;-69
2023/01/24 05:04:58;;;;;;;;;;;;;;;-11.23;52.23;98574.75;6222142;28;20311;-69
2023/01/24 05:08:04;;;;;;;;;;;;;;;-11.13;52.34;98576.91;6205283;28;19925;-70
2023/01/24 05:11:08;;;;;;;;;;;;;;;-11.02;52.21;98570.66;6222165;28;19925;-70
2023/01/24 05:14:10;;;;;;;;;;;;;;;-10.93;51.97;98560.91;6222005;28;19926;-69
2023/01/24 05:17:11;;;;;;;;;;;;;;;-10.80;51.82;98556.41;6221597;28;19931;-69
2023/01/24 05:20:14;;;;;;;;;;;;;;;-10.71;51.37;98555.16;6222230;28;20024;-69
2023/01/24 05:23:21;;;;;;;;;;;;;;;-10.60;51.45;98549.69;6221540;28;19925;-69
2023/01/24 05:26:33;;;;;;;;;;;;;;;-10.48;51.81;98558.72;6221422;28;19931;-70
2023/01/24 05:29:40;;;;;;;;;;;;;;;-10.31;51.74;98554.38;6221298;28;19972;-69
2023/01/24 05:32:44;;;;;;;;;;;;;;;-10.12;51.68;98561.09;6221711;28;20505;-69
2023/01/24 05:35:45;;;;;;;;;;;;;;;-9.90;51.86;98567.13;6221130;28;20022;-70
2023/01/24 05:38:46;;;;;;;;;;;;;;;-9.76;50.70;98566.03;6221518;28;19925;-70
2023/01/24 05:41:48;;;;;;;;;;;;;;;-9.63;51.14;98572.50;6220854;28;19925;-68
2023/01/24 05:44:49;;;;;;;;;;;;;;;-9.49;51.06;98573.94;6220654;28;20403;-70
2023/01/24 05:47:55;;;;;;;;;;;;;;;-9.35;50.69;98570.25;6204387;28;19925;-70
2023/01/24 05:51:00;;;;;;;;;;;;;;;-9.18;51.10;98560.75;6221106;28;19928;-69
2023/01/24 05:54:03;;;;;;;;;;;;;;;-9.00;50.88;98562.28;6221132;28;20302;-69
2023/01/24 05:57:04;;;;;;;;;;;;;;;-8.88;50.80;98553.44;6221350;28;19921;-69
2023/01/24 06:00:06;;;;;;;;;;;;;;;-8.73;50.88;98557.38;6221083;28;19932;-70
2023/01/24 06:03:07;;;;;;;;;;;;;;;-8.59;51.13;98557.06;6220730;28;19936;-69
2023/01/24 06:06:09;;;;;;;;;;;;;;;-8.43;50.68;98550.00;6221087;28;19925;-69
2023/01/24 06:09:10;;;;;;;;;;;;;;;-8.26;50.75;98546.34;6220438;28;20027;-70
2023/01/24 06:12:13;;;;;;;;;;;;;;;-8.10;50.85;98549.41;6203319;28;20421;-68
2023/01/24 06:15:22;;;;;;;;;;;;;;;-7.96;51.27;98545.66;6220834;28;20460;-69
2023/01/24 06:18:25;;;;;;;;;;;;;;;-7.83;50.85;98537.63;6220814;28;20306;-70
2023/01/24 06:21:38;;;;;;;;;;;;;;;-7.68;51.27;98533.00;6220289;28;19926;-70
2023/01/24 06:24:39;;;;;;;;;;;;;;;-7.51;50.83;98530.16;6219611;28;19932;-69
2023/01/24 06:27:40;;;;;;;;;;;;;;;-7.42;52.54;98530.44;6219177;28;19925;-68
2023/01/24 06:30:46;;;;;;;;;;;;;;;-7.35;50.92;98526.41;6219877;28;20310;-70
2023/01/24 06:33:53;;;;;;;;;;;;;;;-7.27;51.74;98541.19;6220281;28;19925;-70
2023/01/24 06:37:12;;;;;;;;;;;;;;;-7.11;51.86;98534.84;6220802;28;19926;-69
2023/01/24 06:40:17;;;;;;;;;;;;;;;-6.92;51.35;98533.72;6219992;28;20000;-69
2023/01/24 06:43:18;;;;;;;;;;;;;;;-6.77;51.95;98534.19;6220416;28;20425;-69
2023/01/24 06:46:24;;;;;;;;;;;;;;;-6.60;51.10;98527.00;6220417;28;19925;-69
2023/01/24 06:49:26;;;;;;;;;;;;;;;-6.50;50.41;98517.03;6220411;28;20450;-69
2023/01/24 06:52:27;;;;;;;;;;;;;;;-6.33;51.33;98526.06;6219414;28;19925;-70
2023/01/24 06:55:28;;;;;;;;;;;;;;;-6.22;51.50;98519.56;6219472;28;20019;-69
2023/01/24 06:58:29;;;;;;;;;;;;;;;-3.43;49.50;98517.13;6220005;28;19960;-70
2023/01/24 07:01:32;;;;;;;;;;;;;;;2.55;40.98;98528.09;6219615;28;20318;-70
2023/01/24 07:04:39;;;;;;;;;;;;;;;8.26;33.55;98518.00;6219913;28;19925;-69
2023/01/24 07:07:41;;;;;;;;;;;;;;;12.50;28.64;98516.97;6219706;28;20414;-69
2023/01/24 07:10:42;;;;;;;;;;;;;;;15.13;26.19;98522.03;6219756;28;19935;-70
2023/01/24 07:13:43;;;;;;;;;;;;;;;17.38;21.69;98518.81;6219983;28;20561;-70
2023/01/24 07:16:50;;;;;;;;;;;;;;;19.52;23.57;98523.28;6219445;28;20394;-69
2023/01/24 07:19:52;;;;;;;;;;;;;;;21.72;23.26;98520.13;6218798;28;19926;-69
2023/01/24 07:22:55;;;;;;;;;;;;;;;23.39;22.02;98513.53;6220074;28;20347;-69
2023/01/24 07:25:57;;;;;;;;;;;;;;;24.45;18.77;98510.91;6220146;28;19964;-69
2023/01/24 07:29:03;;;;;;;;;;;;;;;24.46;19.80;98497.31;6219718;28;20310;-70
2023/01/24 07:32:04;;;;;;;;;;;;;;;24.69;20.82;98496.94;6219703;28;19925;-69
2023/01/24 07:35:06;;;;;;;;;;;;;;;25.76;22.46;98492.50;6203097;28;20391;-70
2023/01/24 07:38:11;;;;;;;;;;;;;;;26.80;15.56;98486.25;6219535;28;20040;-70
2023/01/24 07:41:12;;;;;;;;;;;;;;;27.46;18.12;98497.25;6223853;28;19925;-69
2023/01/24 07:44:18;;;;;;;;;;;;;;;27.99;13.59;98498.63;6224117;28;19925;-70
2023/01/24 07:47:26;;;;;;;;;;;;;;;28.27;16.75;98495.56;6224200;28;19926;-70
2023/01/24 07:50:32;;;;;;;;;;;;;;;28.68;16.67;98487.34;6224012;28;20407;-69
2023/01/24 07:53:33;;;;;;;;;;;;;;;29.37;19.18;98492.94;6223702;28;19932;-70
2023/01/24 07:56:37;;;;;;;;;;;;;;;29.80;19.08;98477.88;6223812;28;20076;-70
2023/01/24 07:59:41;;;;;;;;;;;;;;;30.06;18.86;98479.34;6223764;28;20051;-69
2023/01/24 08:02:44;;;;;;;;;;;;;;;30.18;18.90;98486.03;6223601;28;20023;-69
2023/01/24 08:05:50;;;;;;;;;;;;;;;30.43;17.98;98483.91;6223556;28;20306;-69
2023/01/24 08:08:54;;;;;;;;;;;;;;;30.74;17.72;98491.84;6223632;28;19925;-71
2023/01/24 08:11:55;;;;;;;;;;;;;;;30.91;17.45;98480.81;6223316;28;19948;-69
2023/01/24 08:14:59;;;;;;;;;;;;;;;31.10;17.32;98480.22;6223276;28;19925;-69
2023/01/24 08:18:02;;;;;;;;;;;;;;;31.29;17.33;98487.75;6223460;28;20369;-70
2023/01/24 08:21:06;;;;;;;;;;;;;;;31.53;15.19;98480.28;6223099;28;19925;-70
2023/01/24 08:24:08;;;;;;;;;;;;;;;31.95;13.82;98489.47;6222794;28;19988;-70
2023/01/24 08:27:13;;;;;;;;;;;;;;;32.15;15.98;98490.47;6223156;28;19980;-70
2023/01/24 08:30:19;;;;;;;;;;;;;;;32.12;15.66;98485.41;6223155;28;19972;-70
2023/01/24 08:33:23;;;;;;;;;;;;;;;32.12;15.20;98479.97;6222859;28;19925;-69
2023/01/24 08:36:26;;;;;;;;;;;;;;;32.14;15.44;98485.25;6223058;28;20299;-69
2023/01/24 08:39:30;;;;;;;;;;;;;;;32.23;14.26;98480.47;6197197;28;19926;-70
2023/01/24 08:42:35;;;;;;;;;;;;;;;32.28;15.08;98483.44;6197248;28;20315;-69
2023/01/24 08:45:39;;;;;;;;;;;;;;;32.22;15.21;98473.34;6198411;28;19932;-71
2023/01/24 08:48:43;;;;;;;;;;;;;;;32.30;14.73;98470.44;6198452;28;20388;-70
2023/01/24 08:51:47;;;;;;;;;;;;;;;32.15;14.76;98471.41;6197847;28;19926;-69
2023/01/24 08:54:50;;;;;;;;;;;;;;;31.41;15.19;98468.22;6198163;28;20100;-70
2023/01/24 08:57:51;;;;;;;;;;;;;;;30.82;14.82;98461.06;6197921;28;19929;-69
2023/01/24 09:00:55;;;;;;;;;;;;;;;30.43;14.78;98456.72;6198152;28;19929;-69
2023/01/24 09:04:02;;;;;;;;;;;;;;;30.10;14.78;98456.25;6198136;28;19925;-70
2023/01/24 09:07:08;;;;;;;;;;;;;;;29.86;14.02;98452.72;6198036;28;19925;-69
2023/01/24 09:10:10;;;;;;;;;;;;;;;29.46;14.71;98443.03;6197839;28;20403;-68
2023/01/24 09:13:11;;;;;;;;;;;;;;;28.78;13.68;98444.63;6197653;28;19930;-69
2023/01/24 09:16:16;;;;;;;;;;;;;;;28.43;14.87;98436.00;6197855;28;19925;-69
2023/01/24 09:19:17;;;;;;;;;;;;;;;27.89;14.38;98430.34;6197734;28;20023;-69
2023/01/24 09:22:21;;;;;;;;;;;;;;;27.27;14.72;98439.81;6197502;28;20422;-70
2023/01/24 09:25:24;;;;;;;;;;;;;;;27.07;14.58;98430.28;6196609;28;19926;-70
2023/01/24 09:28:27;;;;;;;;;;;;;;;27.13;14.44;98435.03;6197120;28;20155;-70
2023/01/24 09:31:28;;;;;;;;;;;;;;;27.18;13.96;98435.41;6197252;28;19932;-70
2023/01/24 09:34:29;;;;;;;;;;;;;;;26.70;14.00;98431.53;6197288;28;19925;-70
2023/01/24 09:37:33;;;;;;;;;;;;;;;26.25;13.92;98427.28;6198713;28;19949;-70
2023/01/24 09:40:44;;;;;;;;;;;;;;;26.30;13.81;98418.69;6221581;28;19925;-70
2023/01/24 09:44:11;;;;;;;;;;;;;;;26.50;13.19;98417.47;6221621;28;19952;-71
2023/01/24 09:47:26;;;;;;;;;;;;;;;26.42;13.74;98420.09;6220405;28;20387;-70
2023/01/24 09:50:34;;;;;;;;;;;;;;;26.41;12.98;98410.28;6221500;28;19925;-71
2023/01/24 09:53:49;;;;;;;;;;;;;;;26.34;13.21;98410.09;6221061;28;19925;-70
2023/01/24 09:56:55;;;;;;;;;;;;;;;26.31;12.99;98407.72;6221199;28;19926;-70
2023/01/24 10:00:10;;;;;;;;;;;;;;;25.93;11.14;98404.50;6220844;28;19925;-69
2023/01/24 10:03:18;;;;;;;;;;;;;;;25.26;12.38;98403.31;6220139;28;19925;-70
2023/01/24 10:06:30;;;;;;;;;;;;;;;24.42;13.56;98388.25;6221018;28;20314;-70
2023/01/24 10:09:40;;;;;;;;;;;;;;;23.94;13.63;98394.69;6220931;28;19930;-70
2023/01/24 10:12:56;;;;;;;;;;;;;;;23.83;13.89;98393.00;6220738;28;19925;-69
2023/01/24 10:16:12;;;;;;;;;;;;;;;23.35;13.98;98395.75;6220727;28;19930;-70
2023/01/24 10:19:34;;;;;;;;;;;;;;;22.91;14.10;98390.81;6220684;28;19925;-70
2023/01/24 10:22:54;;;;;;;;;;;;;;;22.76;14.19;98386.81;6221141;28;20386;-70
2023/01/24 10:26:00;;;;;;;;;;;;;;;22.94;13.85;98390.53;6220707;28;19926;-70
2023/01/24 10:29:11;;;;;;;;;;;;;;;23.05;13.91;98387.72;6203023;28;19932;-70
2023/01/24 10:32:20;;;;;;;;;;;;;;;23.08;13.90;98386.59;6220604;28;19925;-70
2023/01/24 10:35:25;;;;;;;;;;;;;;;22.90;13.87;98397.16;6220475;28;19929;-70
2023/01/24 10:38:27;;;;;;;;;;;;;;;22.81;13.75;98393.47;6220259;28;19929;-68
2023/01/24 10:41:33;;;;;;;;;;;;;;;22.35;14.02;98394.94;6220612;28;19955;-70
2023/01/24 10:44:39;;;;;;;;;;;;;;;21.33;14.12;98388.56;6220569;28;20346;-70
2023/01/24 10:47:44;;;;;;;;;;;;;;;18.13;16.36;98382.34;6220578;28;19925;-70
2023/01/24 10:50:45;;;;;;;;;;;;;;;14.03;18.18;98378.03;6220067;28;20394;-69
2023/01/24 10:53:50;;;;;;;;;;;;;;;10.48;21.75;98363.19;6219890;28;19931;-70
2023/01/24 10:56:53;;;;;;;;;;;;;;;7.94;24.43;98375.63;6220166;28;19930;-70
2023/01/24 11:00:00;;;;;;;;;;;;;;;6.08;25.36;98385.75;6220078;28;19932;-71
2023/01/24 11:03:05;;;;;;;;;;;;;;;4.77;26.37;98370.97;6220206;28;20028;-71
2023/01/24 11:06:19;;;;;;;;;;;;;;;3.74;27.07;98369.13;6219865;28;19922;-70
2023/01/24 11:09:27;;;;;;;;;;;;;;;2.76;27.61;98372.84;6220125;28;19925;-71
2023/01/24 11:12:28;;;;;;;;;;;;;;;1.95;27.70;98374.34;6220068;28;19921;-70
2023/01/24 11:15:33;;;;;;;;;;;;;;;1.34;28.33;98375.56;6223503;28;19926;-70
2023/01/24 11:18:34;;;;;;;;;;;;;;;0.87;28.34;98380.00;6224777;28;19955;-71
2023/01/24 11:21:49;;;;;;;;;;;;;;;0.44;28.49;98380.06;6224593;28;20055;-71
2023/01/24 11:25:00;;;;;;;;;;;;;;;-0.01;29.37;98380.91;6223279;28;19960;-70
2023/01/24 11:28:22;;;;;;;;;;;;;;;-0.59;30.41;98381.63;6224911;28;19929;-70
2023/01/24 11:31:37;;;;;;;;;;;;;;;-0.97;30.44;98390.06;6223765;28;20343;-71
2023/01/24 11:34:39;;;;;;;;;;;;;;;-1.25;30.18;98389.03;6224063;28;19979;-70
2023/01/24 11:37:42;;;;;;;;;;;;;;;-1.47;30.46;98390.63;6206730;28;19925;-71
2023/01/24 11:41:02;;;;;;;;;;;;;;;-1.63;30.61;98383.63;6206247;28;20318;-71
2023/01/24 11:44:38;;;;;;;;;;;;;;;-1.87;30.35;98374.84;6223898;28;20060;-70
2023/01/24 11:47:46;;;;;;;;;;;;;;;-2.12;31.13;98378.06;6212044;28;19934;-71
2023/01/24 11:50:53;;;;;;;;;;;;;;;-2.33;32.28;98376.97;6224046;28;19932;-71
2023/01/24 11:54:08;;;;;;;;;;;;;;;-2.59;34.00;98378.41;6223596;28;20493;-70
2023/01/24 11:57:23;;;;;;;;;;;;;;;-2.61;31.87;98380.09;6224127;28;19925;-71
2023/01/24 12:00:32;;;;;;;;;;;;;;;-2.65;32.34;98375.78;6223409;28;19926;-70
2023/01/24 12:03:45;;;;;;;;;;;;;;;-2.78;33.18;98377.31;6223666;28;19929;-70
2023/01/24 12:07:05;;;;;;;;;;;;;;;-2.98;33.50;98370.22;6222761;28;19926;-71
2023/01/24 12:10:26;;;;;;;;;;;;;;;-3.12;33.24;98361.44;6223183;28;20307;-70
2023/01/24 12:13:39;;;;;;;;;;;;;;;-3.34;34.54;98364.56;6223276;28;19930;-69
2023/01/24 12:16:42;;;;;;;;;;;;;;;-3.56;35.43;98353.13;6223174;28;19925;-69
2023/01/24 12:19:54;;;;;;;;;;;;;;;-3.93;39.76;98357.69;6223399;28;20313;-71
2023/01/24 12:23:27;;;;;;;;;;;;;;;-4.28;36.82;98355.38;6222981;28;20548;-70
2023/01/24 12:26:35;;;;;;;;;;;;;;;-4.53;36.40;98357.53;6221499;28;19929;-70
2023/01/24 12:30:00;;;;;;;;;;;;;;;-4.71;36.91;98357.16;6222920;28;19926;-70
2023/01/24 12:33:11;;;;;;;;;;;;;;;-4.90;37.01;98352.50;6219500;28;19975;-71
2023/01/24 12:36:12;;;;;;;;;;;;;;;-4.71;41.23;98359.72;6222875;28;19933;-70
2023/01/24 12:39:30;;;;;;;;;;;;;;;-5.12;41.66;98362.34;6221908;28;19994;-70
2023/01/24 12:42:49;;;;;;;;;;;;;;;-5.50;42.51;98367.50;6222095;28;19929;-70
2023/01/24 12:46:22;;;;;;;;;;;;;;;-5.73;41.58;98363.56;6222508;28;19933;-71
2023/01/24 12:49:37;;;;;;;;;;;;;;;-5.88;40.94;98354.69;6222542;28;19925;-69
2023/01/24 12:53:20;;;;;;;;;;;;;;;-5.99;41.08;98356.16;6221693;28;19932;-70
2023/01/24 12:57:02;;;;;;;;;;;;;;;-6.04;40.21;98359.44;6217735;28;19925;-70
2023/01/24 13:00:14;;;;;;;;;;;;;;;-6.08;41.02;98358.50;6221402;28;19926;-70
2023/01/24 13:03:34;;;;;;;;;;;;;;;-6.12;40.67;98356.66;6222099;28;20374;-70
2023/01/24 13:06:39;;;;;;;;;;;;;;;-6.22;40.69;98359.84;6204322;28;20030;-69
2023/01/24 13:09:57;;;;;;;;;;;;;;;-6.36;41.78;98352.69;6222190;28;19925;-69
2023/01/24 13:13:07;;;;;;;;;;;;;;;-6.52;41.10;98355.66;6204554;28;20457;-70
2023/01/24 13:16:29;;;;;;;;;;;;;;;-6.69;41.28;98356.91;6221878;28;19922;-69
2023/01/24 13:19:30;;;;;;;;;;;;;;;-6.83;40.85;98346.31;6221198;28;19941;-69
2023/01/24 13:22:49;;;;;;;;;;;;;;;-6.96;41.26;98351.91;6221290;28;19929;-71
2023/01/24 13:26:08;;;;;;;;;;;;;;;-7.15;41.13;98351.41;6221572;28;20185;-70
2023/01/24 13:29:26;;;;;;;;;;;;;;;-7.24;41.34;98336.66;6221435;28;19976;-70
2023/01/24 13:32:27;;;;;;;;;;;;;;;-7.34;41.39;98339.75;6220925;28;20431;-70
2023/01/24 13:35:33;;;;;;;;;;;;;;;-7.40;42.19;98339.59;6221437;28;19926;-70
2023/01/24 13:38:42;;;;;;;;;;;;;;;-7.41;44.87;98337.88;6220869;28;19932;-69
2023/01/24 13:42:00;;;;;;;;;;;;;;;-7.35;44.39;98345.72;6219106;28;19926;-70
2023/01/24 13:45:19;;;;;;;;;;;;;;;-7.52;45.66;98339.25;6221217;28;19929;-70
2023/01/24 13:48:37;;;;;;;;;;;;;;;-7.41;48.41;98350.66;6220909;28;19930;-70
2023/01/24 13:51:45;;;;;;;;;;;;;;;-7.26;50.20;98348.53;6220935;28;19930;-70
2023/01/24 13:54:45;;;;;;;;;;;;;;;-7.62;50.50;98347.44;6220285;28;19925;-70
2023/01/24 13:57:48;;;;;;;;;;;;;;;-7.68;50.75;98343.00;6220378;28;20444;-69
2023/01/24 14:00:54;;;;;;;;;;;;;;;-7.78;51.47;98336.75;6220850;28;19926;-70
2023/01/24 14:04:02;;;;;;;;;;;;;;;-8.06;51.44;98331.63;6220553;28;19925;-70
2023/01/24 14:07:16;;;;;;;;;;;;;;;-8.26;52.07;98331.84;6220188;28;20442;-70
2023/01/24 14:10:31;;;;;;;;;;;;;;;-8.32;52.26;98334.22;6219948;28;20383;-71
2023/01/24 14:13:43;;;;;;;;;;;;;;;-8.37;52.00;98333.19;6220327;28;20326;-71
2023/01/24 14:16:49;;;;;;;;;;;;;;;-8.60;51.67;98330.78;6220826;28;19925;-70
2023/01/24 14:19:55;;;;;;;;;;;;;;;-8.62;51.28;98332.41;6220677;28;20383;-69
2023/01/24 14:22:57;;;;;;;;;;;;;;;-8.65;51.08;98327.19;6203156;28;19932;-72
2023/01/24 14:26:05;;;;;;;;;;;;;;;-8.66;51.09;98325.47;6219670;28;19957;-70
2023/01/24 14:29:16;;;;;;;;;;;;;;;-8.62;51.14;98319.63;6220712;28;20004;-70
2023/01/24 14:32:35;;;;;;;;;;;;;;;-8.56;50.41;98315.56;6220134;28;19921;-71
2023/01/24 14:35:48;;;;;;;;;;;;;;;-8.49;51.10;98314.94;6220416;28;20387;-70
2023/01/24 14:39:09;;;;;;;;;;;;;;;-8.34;52.64;98307.75;6220150;28;20395;-70
2023/01/24 14:42:14;;;;;;;;;;;;;;;-8.25;53.26;98308.03;6220317;28;19932;-71
2023/01/24 14:45:17;;;;;;;;;;;;;;;-8.56;53.22;98315.56;6220346;28;20032;-71
2023/01/24 14:48:24;;;;;;;;;;;;;;;-8.60;54.29;98315.47;6220395;28;19932;-71
2023/01/24 14:51:27;;;;;;;;;;;;;;;-8.53;54.94;98313.09;6225216;28;20399;-71
2023/01/24 14:54:28;;;;;;;;;;;;;;;-8.77;55.45;98316.56;6224942;28;19925;-70
2023/01/24 14:57:30;;;;;;;;;;;;;;;-9.11;55.80;98315.41;6207072;28;19928;-70
2023/01/24 15:00:31;;;;;;;;;;;;;;;-9.06;56.10;98308.78;6224493;28;19931;-70
2023/01/24 15:03:35;;;;;;;;;;;;;;;-9.26;55.95;98299.53;6207689;28;19921;-70
2023/01/24 15:06:39;;;;;;;;;;;;;;;-9.30;56.38;98302.81;6207256;28;19925;-69
2023/01/24 15:09:45;;;;;;;;;;;;;;;-9.02;56.49;98293.59;6224721;28;19921;-71
2023/01/24 15:12:51;;;;;;;;;;;;;;;-9.16;57.32;98295.66;6224669;28;19932;-71
2023/01/24 15:15:57;;;;;;;;;;;;;;;-9.23;57.93;98289.44;6224996;28;19921;-70
2023/01/24 15:19:03;;;;;;;;;;;;;;;-9.43;57.45;98285.34;6206846;28;19926;-70
2023/01/24 15:22:18;;;;;;;;;;;;;;;-9.54;57.99;98296.03;6224500;28;19929;-71
2023/01/24 15:25:19;;;;;;;;;;;;;;;-9.57;57.88;98283.16;6223548;28;19926;-70
2023/01/24 15:28:25;;;;;;;;;;;;;;;-9.62;57.97;98279.59;6223782;28;19926;-71
2023/01/24 15:31:34;;;;;;;;;;;;;;;-9.44;58.43;98274.28;6223554;28;19925;-70
2023/01/24 15:34:39;;;;;;;;;;;;;;;-9.49;58.88;98271.56;6223685;28;19925;-70
2023/01/24 15:37:42;;;;;;;;;;;;;;;-9.60;58.72;98277.06;6222952;28;20063;-71
2023/01/24 15:40:49;;;;;;;;;;;;;;;-9.58;59.10;98268.69;6223467;28;19953;-69
2023/01/24 15:44:06;;;;;;;;;;;;;;;-9.65;59.28;98264.19;6223961;28;19929;-71
2023/01/24 15:51:08;;;;;;;;;;;;;;;-9.60;59.07;98266.88;6223543;28;19925;-69
2023/01/24 15:54:13;;;;;;;;;;;;;;;-9.75;59.03;98257.00;6223837;28;19932;-71
2023/01/24 15:57:22;;;;;;;;;;;;;;;-9.79;59.45;98261.13;6223824;28;20278;-70
2023/01/24 16:00:26;;;;;;;;;;;;;;;-9.67;59.56;98259.84;6223577;28;19936;-71
2023/01/24 16:03:29;;;;;;;;;;;;;;;-9.99;59.44;98260.38;6205009;28;19925;-70
2023/01/24 16:06:32;;;;;;;;;;;;;;;-9.89;60.27;98258.19;6223580;28;19933;-71
2023/01/24 16:09:40;;;;;;;;;;;;;;;-9.89;60.24;98242.91;6207432;28;20063;-70
2023/01/24 16:12:51;;;;;;;;;;;;;;;-9.97;59.54;98243.47;6223269;28;20320;-70
2023/01/24 16:15:59;;;;;;;;;;;;;;;-9.86;60.01;98243.00;6223286;28;19932;-70
2023/01/24 16:19:08;;;;;;;;;;;;;;;-9.81;59.80;98238.97;6223271;28;20063;-70
2023/01/24 16:22:17;;;;;;;;;;;;;;;-10.03;59.75;98239.84;6223361;28;20016;-70
2023/01/24 16:25:21;;;;;;;;;;;;;;;-9.96;60.36;98242.69;6206086;28;20383;-69
2023/01/24 16:28:24;;;;;;;;;;;;;;;-10.03;59.83;98240.69;6222797;28;20031;-70
2023/01/24 16:31:25;;;;;;;;;;;;;;;-9.92;60.32;98242.78;6222883;28;19922;-69
2023/01/24 16:34:26;;;;;;;;;;;;;;;-10.19;60.54;98243.47;6222487;28;20319;-70
2023/01/24 16:37:27;;;;;;;;;;;;;;;-10.37;60.19;98240.25;6222293;28;20007;-69
2023/01/24 16:40:30;;;;;;;;;;;;;;;-10.50;60.37;98232.16;6222804;28;19926;-70
2023/01/24 16:43:35;;;;;;;;;;;;;;;-10.48;59.88;98234.75;6222829;28;19925;-70
2023/01/24 16:46:36;;;;;;;;;;;;;;;-10.36;60.16;98239.44;6222149;28;20036;-70